Ritter, Iowa
Current Conditions -  °F | °C
As of 1:55 PM on Sunday 23 Nov 2014 (Local Time) from KSHL Reporting Station
Light Rain Light Rain  
Wind Chill: 30°   Ceiling: Unl
Heat Index: 39°   Visibility: 8mi
Dew Point: 37°   Wind: 16mph
Humidity: 93%   Direction: 330°NNW
Pressure: 29.47"   Gusts: 23mph
Location:  43.1723°N, 95.8037°W
Report Text: KSHL 231955Z AUTO 33014G20KT 8SM -RA CLR 04/03 A2947 RMK AO2
Loading
Personal Weather Stations






























Interactive Weather Map New forecast layout! Learn more

10-Day Weather Forecast

Advertisements
Track Severe Weather on mobile